Hauptseite
METAR-TAF:

METAR-TAF

Flughäfen :

Flughafen Bolschoje Sawino

Perm, Russland

Breite: 58-00N, Länge: 056-15E, Höhe: 170 m

Beobachtung

Neuester Wetterbericht von vor 42 Minuten, um 18:30 UTC
Windstille
Temperatur 14°C
Luftfeuchtigkeit 77%
Luftdruck 1022 hPa
Sichtweite 10 km oder mehr
keine Wolken unter 1500 m und keine Kumulonimbus oder Gewitterwolken

METAR: USPP 141830Z 00000MPS CAVOK 14/10 Q1022 R21/090060 NOSIG RMK QFE755

Zeit: 00:12 (19:12 UTC)

Prognose

Neuester Wetterbericht von vor 2 Stunden und 17 Minuten, um 16:55 UTC
Gültige Prognose vom 14 um 18 UTC bis 15 um 18 UTC
Wind 6 kt aus Nord, Böen bis zu 19 kt
Sichtweite: 6000 m
Durchbrochene Bewölkung in der Höhe von 2000 ft
Übergehend zu
vom 15 um 03 UTC bis 15 um 04 UTC
Sichtweite 10 km oder mehr
keine Wolken unter 1500 m und keine Kumulonimbus oder Gewitterwolken

TAF: USPP 141655Z 1418/1518 36003G10MPS 6000 BKN020 BECMG 1503/1504 CAVOK

Wetterbeobachtungen und Prognosen von mehr als 4000 Flughäfen (METAR und TAF Bericht).

Die verfügbaren Stationen werden durch gelbe und rote Markierungen auf der Karte dargestellt.

Führen Sie die Maus auf sie, um den Namen der Station zu sehen.

Darauf klicken, um die Beobachtung von Wetterbeobachtungen und Prognosen zu sehen.

Um die Karte zu ändern : klicken Sie auf den grünen Tasten mit einem schwarzen Kreuz Zum Vergrößern, auf den grünen Button mit einem Gedankenstrich zu verkleinern, oder auf die grünen Pfeile für benachbarte Karten.


METAR-TAF: